Current Weather

Mason Jewett Fld

Mason, Michigan (KTEW)

Report from: Thursday, April 25, 2024 12:55 AM EDT
Current time: Thursday, April 25, 2024 1:10 AM EDT

Nearby weather – Weather history – Daily summaries
Weather forecast

Temperature0.1°C (32.2°F)
Wind chill-1.7°C (28.9°F)
Dew point-4.0°C (24.8°F)
Winds 3 kts (1.5 m/s, 3.5 mph) North-Northeast (30°)
Visibility10 mi. (16.1 km)
Clouds Sky clear
Altimeter30.31 in.Hg (1026 mB)
Relative humidity74 %
Density altitude-2,197 ft. (-670 m)
Remarks Fully automated report
Automated weather observing station with precipitation discriminator
Flight conditions Visual Meteorological Conditions
Raw dataKTEW 250455Z AUTO 03003KT 10SM CLR 00/M04 A3031 RMK AO2 T00011040
An error has occurred. This application may no longer respond until reloaded. Reload 🗙